Flight Track Log - Related Links

Times and Time Zones

All times are in EDT time to prevent confusion due to time zone crossing. See the N2853A flight status page for this flight to view local times or setup timezone preferences in your user account.

Time Position Orientation Groundspeed Altitude Reporting Facility
EDT Latitude Longitude Course Direction KTS MPH feet Rate Location/Type
Sun 08:39:25 PM 38.5333 -90.2000 237° Southwest 74 85 3,000  Level Gateway (St. Louis) TRACON
Sun 08:40:25 PM 38.5333 -90.2167 270° West 76 87 3,700 737 Climbing Gateway (St. Louis) TRACON
Sun 08:41:19 PM 38.5333 -90.2500 270° West 76 87 4,400 722 Climbing Gateway (St. Louis) TRACON
Sun 08:42:13 PM 38.5167 -90.2667 218° Southwest 76 87 5,000 632 Climbing Gateway (St. Louis) TRACON
Sun 08:43:13 PM 38.5167 -90.3000 270° West 78 90 5,600 650 Climbing Gateway (St. Louis) TRACON
Sun 08:44:13 PM 38.5167 -90.3167 270° West 76 87 6,300 619 Climbing Gateway (St. Louis) TRACON
Sun 08:45:19 PM 38.5042 -90.3467 242° Southwest 74 85 6,900 520 Climbing Kansas City Center
Sun 08:46:20 PM 38.4961 -90.3719 248° West 73 84 7,400 537 Climbing Kansas City Center
Sun 08:47:22 PM 38.4892 -90.3972 251° West 75 86 8,000 532 Climbing Kansas City Center
Sun 08:48:24 PM 38.4803 -90.4219 245° Southwest 76 87 8,500 488 Climbing Kansas City Center
Sun 08:49:25 PM 38.4731 -90.4481 251° West 78 90 9,000 488 Climbing Kansas City Center
Sun 08:50:27 PM 38.4661 -90.4750 252° West 79 91 9,500 484 Climbing Kansas City Center
Sun 08:51:29 PM 38.4597 -90.5028 254° West 81 93 10,000 439 Climbing Kansas City Center
Sun 08:52:30 PM 38.4556 -90.5297 259° West 78 90 10,400 439 Climbing Kansas City Center
Sun 08:53:32 PM 38.4486 -90.5628 255° West 80 92 10,900 435 Climbing Kansas City Center
Sun 08:54:34 PM 38.4400 -90.5900 248° West 81 93 11,300 390 Climbing Kansas City Center
Sun 08:55:35 PM 38.4317 -90.6186 250° West 84 97 11,700 293 Climbing Kansas City Center
Sun 08:56:37 PM 38.4247 -90.6486 254° West 87 100 11,900 98 Climbing Kansas City Center
Sun 08:57:38 PM 38.4169 -90.6858 255° West 102 117 11,900  Level Kansas City Center
Sun 08:58:40 PM 38.4072 -90.7261 253° West 115 132 11,900  Level Kansas City Center
Sun 08:59:42 PM 38.3964 -90.7647 250° West 116 133 11,900  Level Kansas City Center
Sun 09:00:43 PM 38.3869 -90.8047 253° West 117 135 11,900  Level Kansas City Center
Sun 09:01:45 PM 38.3747 -90.8542 253° West 121 139 11,900  Level Kansas City Center
Sun 09:02:46 PM 38.3600 -90.8942 245° Southwest 125 144 11,900  Level Kansas City Center
Sun 09:03:48 PM 38.3406 -90.9328 237° Southwest 127 146 11,900 -49 Level Kansas City Center
Sun 09:04:49 PM 38.3211 -90.9711 237° Southwest 128 147 11,800  Descending Kansas City Center
Sun 09:05:51 PM 38.3042 -91.0103 241° Southwest 127 146 11,900 48 Climbing Kansas City Center
Sun 09:06:53 PM 38.2872 -91.0497 241° Southwest 128 147 11,900  Level Kansas City Center
Sun 09:07:54 PM 38.2678 -91.0875 237° Southwest 128 147 11,900  Level Kansas City Center
Sun 09:08:56 PM 38.2475 -91.1247 235° Southwest 128 147 11,900  Level Kansas City Center
Sun 09:09:57 PM 38.2269 -91.1714 241° Southwest 127 146 11,900  Level Kansas City Center
Sun 09:10:58 PM 38.2100 -91.2108 241° Southwest 127 146 11,900  Level Kansas City Center
Sun 09:12:00 PM 38.1911 -91.2494 238° Southwest 127 146 11,900  Level Kansas City Center
Sun 09:13:01 PM 38.1711 -91.2886 237° Southwest 129 148 11,900  Level Kansas City Center
Sun 09:14:03 PM 38.1528 -91.3286 240° Southwest 129 148 11,900  Level Kansas City Center
Sun 09:15:04 PM 38.1344 -91.3675 239° Southwest 129 148 11,900  Level Kansas City Center
Sun 09:16:06 PM 38.1156 -91.4061 238° Southwest 129 148 11,900 49 Level Kansas City Center
Sun 09:17:07 PM 38.0961 -91.4450 238° Southwest 129 148 12,000 49 Climbing Kansas City Center
Sun 09:18:09 PM 38.0753 -91.4936 241° Southwest 129 148 12,000  Level Kansas City Center
Sun 09:19:10 PM 38.0553 -91.5317 236° Southwest 129 148 12,000  Level Kansas City Center
Sun 09:20:12 PM 38.0394 -91.5725 244° Southwest 129 148 12,000 -49 Level Kansas City Center
Sun 09:21:13 PM 38.0214 -91.6136 241° Southwest 132 152 11,900 -49 Descending Kansas City Center
Sun 09:22:15 PM 38.0003 -91.6508 234° Southwest 131 151 11,900  Level Kansas City Center
Sun 09:23:16 PM 37.9839 -91.6919 243° Southwest 130 150 11,900 -49 Level Kansas City Center
Sun 09:24:18 PM 37.9661 -91.7319 241° Southwest 130 150 11,800  Descending Kansas City Center
Sun 09:25:19 PM 37.9481 -91.7717 240° Southwest 130 150 11,900 49 Climbing Kansas City Center
Sun 09:26:21 PM 37.9272 -91.8097 235° Southwest 130 150 11,900 -49 Level Kansas City Center
Sun 09:27:22 PM 37.9083 -91.8481 238° Southwest 129 148 11,800  Descending Kansas City Center
Sun 09:28:24 PM 37.8861 -91.8953 239° Southwest 129 148 11,900 49 Climbing Kansas City Center
Sun 09:29:25 PM 37.8678 -91.9347 240° Southwest 129 148 11,900  Level Kansas City Center
Sun 09:30:27 PM 37.8483 -91.9739 238° Southwest 131 151 11,900  Level Kansas City Center
Sun 09:31:28 PM 37.8306 -92.0139 241° Southwest 131 151 11,900 -49 Level Kansas City Center
Sun 09:32:30 PM 37.8103 -92.0536 237° Southwest 132 152 11,800 -49 Descending Kansas City Center
Sun 09:33:31 PM 37.7911 -92.0928 238° Southwest 131 151 11,800 49 Level Kansas City Center
Sun 09:34:33 PM 37.7711 -92.1319 237° Southwest 132 152 11,900  Climbing Kansas City Center
Sun 09:35:34 PM 37.7547 -92.1733 243° Southwest 131 151 11,800  Descending Kansas City Center
Sun 09:36:36 PM 37.7342 -92.2131 237° Southwest 134 154 11,900 49 Climbing Kansas City Center
Sun 09:37:37 PM 37.7150 -92.2536 239° Southwest 133 153 11,900  Level Kansas City Center
Sun 09:38:38 PM 37.6936 -92.2925 235° Southwest 134 154 11,900  Level Kansas City Center
Sun 09:39:40 PM 37.6711 -92.3406 239° Southwest 132 152 11,900  Level Kansas City Center
Sun 09:40:41 PM 37.6497 -92.3806 236° Southwest 134 154 11,900 -98 Level Kansas City Center
Sun 09:41:43 PM 37.6303 -92.4217 239° Southwest 135 155 11,700 -244 Descending Kansas City Center
Sun 09:42:44 PM 37.6114 -92.4636 240° Southwest 136 157 11,400 -341 Descending Kansas City Center
Sun 09:43:46 PM 37.5931 -92.5031 240° Southwest 132 152 11,000 -488 Descending Kansas City Center
Sun 09:44:47 PM 37.5736 -92.5431 238° Southwest 132 152 10,400 -537 Descending Kansas City Center
Sun 09:45:49 PM 37.5525 -92.5833 237° Southwest 135 155 9,900 -488 Descending Kansas City Center
Sun 09:46:50 PM 37.5317 -92.6208 235° Southwest 132 152 9,400 -439 Descending Kansas City Center
Sun 09:47:52 PM 37.5131 -92.6617 240° Southwest 132 152 9,000 -439 Descending Kansas City Center
Sun 09:48:53 PM 37.4947 -92.7003 239° Southwest 131 151 8,500 -537 Descending Kansas City Center
Sun 09:49:55 PM 37.4725 -92.7453 238° Southwest 128 147 7,900 -537 Descending Kansas City Center
Sun 09:50:56 PM 37.4539 -92.7819 237° Southwest 126 145 7,400 -537 Descending Kansas City Center
Sun 09:51:58 PM 37.4378 -92.8172 240° Southwest 121 139 6,800 -634 Descending Kansas City Center
Sun 09:52:59 PM 37.4192 -92.8522 236° Southwest 120 138 6,100 -683 Descending Kansas City Center
Sun 09:54:01 PM 37.4011 -92.8886 238° Southwest 121 139 5,400 -537 Descending Kansas City Center
Sun 09:55:02 PM 37.3847 -92.9231 239° Southwest 119 137 5,000 -341 Descending Kansas City Center
Sun 09:56:04 PM 37.3681 -92.9553 237° Southwest 114 131 4,700 -387 Descending Kansas City Center
Sun 09:57:06 PM 37.3506 -92.9892 237° Southwest 113 130 4,200 -488 Descending Kansas City Center
Sun 09:58:07 PM 37.3336 -93.0256 240° Southwest 117 135 3,700 -488 Descending Kansas City Center
Sun 09:59:09 PM 37.3167 -93.0617 239° Southwest 118 136 3,200 -488 Descending Kansas City Center
Sun 10:00:10 PM 37.2964 -93.1039 239° Southwest 118 136 2,700 -390 Descending Kansas City Center
Sun 10:01:12 PM 37.2811 -93.1381 241° Southwest 116 133 2,400 -293 Descending Kansas City Center
Sun 10:02:13 PM 37.2653 -93.1736 241° Southwest 115 132 2,100 -148 Descending Kansas City Center
Sun 10:03:14 PM 37.2472 -93.2042 233° Southwest 113 130 2,100 49 Level Kansas City Center
Sun 10:04:16 PM 37.2347 -93.2353 243° Southwest 106 122 2,200 -146 Climbing Kansas City Center
Sun 10:05:17 PM 37.2447 -93.2708 289° West 111 128 1,800 -293 Descending Kansas City Center
Sun 10:06:19 PM 37.2286 -93.2661 167° South 80 92 1,600 -146 Descending Kansas City Center
Sun 10:07:20 PM 37.2178 -93.2497 130° Southeast 77 89 1,500 -98 Descending Kansas City Center

Login

Don't have an account? Register now (free) for customized features, flight alerts, and more!